sensor_id;sensor_type;location;lat;lon;timestamp;temperature;humidity
33269;DHT22;19640;50.944;5.260;2024-01-10T00:01:19;-3.90;99.90
33269;DHT22;19640;50.944;5.260;2024-01-10T00:03:46;-3.90;99.90
33269;DHT22;19640;50.944;5.260;2024-01-10T00:06:12;-3.90;99.90
33269;DHT22;19640;50.944;5.260;2024-01-10T00:08:37;-3.90;99.90
33269;DHT22;19640;50.944;5.260;2024-01-10T00:11:03;-4.00;99.90
33269;DHT22;19640;50.944;5.260;2024-01-10T00:13:33;-4.00;99.90
33269;DHT22;19640;50.944;5.260;2024-01-10T00:15:59;-4.10;99.90
33269;DHT22;19640;50.944;5.260;2024-01-10T00:18:25;-4.10;99.90
33269;DHT22;19640;50.944;5.260;2024-01-10T00:20:54;-4.10;99.90
33269;DHT22;19640;50.944;5.260;2024-01-10T00:23:20;-4.10;99.90
33269;DHT22;19640;50.944;5.260;2024-01-10T00:25:46;-4.00;99.90
33269;DHT22;19640;50.944;5.260;2024-01-10T00:28:12;-4.00;99.90
33269;DHT22;19640;50.944;5.260;2024-01-10T00:30:38;-4.10;99.90
33269;DHT22;19640;50.944;5.260;2024-01-10T00:33:05;-4.10;99.90
33269;DHT22;19640;50.944;5.260;2024-01-10T00:35:31;-4.10;99.90
33269;DHT22;19640;50.944;5.260;2024-01-10T00:37:57;-4.10;99.90
33269;DHT22;19640;50.944;5.260;2024-01-10T00:40:23;-4.10;99.90
33269;DHT22;19640;50.944;5.260;2024-01-10T00:42:49;-4.10;99.90
33269;DHT22;19640;50.944;5.260;2024-01-10T00:45:16;-4.10;99.90
33269;DHT22;19640;50.944;5.260;2024-01-10T00:47:42;-4.10;99.90
33269;DHT22;19640;50.944;5.260;2024-01-10T00:50:08;-4.00;99.90
33269;DHT22;19640;50.944;5.260;2024-01-10T00:52:34;-4.00;99.90
33269;DHT22;19640;50.944;5.260;2024-01-10T00:54:59;-4.00;99.90
33269;DHT22;19640;50.944;5.260;2024-01-10T00:57:25;-4.00;99.90
33269;DHT22;19640;50.944;5.260;2024-01-10T00:59:51;-4.00;99.90
33269;DHT22;19640;50.944;5.260;2024-01-10T01:02:16;-4.00;99.90
33269;DHT22;19640;50.944;5.260;2024-01-10T01:04:42;-4.10;99.90
33269;DHT22;19640;50.944;5.260;2024-01-10T01:07:08;-4.10;99.90
33269;DHT22;19640;50.944;5.260;2024-01-10T01:09:34;-4.10;99.90
33269;DHT22;19640;50.944;5.260;2024-01-10T01:12:00;-4.10;99.90
33269;DHT22;19640;50.944;5.260;2024-01-10T01:14:26;-4.10;99.90
33269;DHT22;19640;50.944;5.260;2024-01-10T01:16:51;-4.10;99.90
33269;DHT22;19640;50.944;5.260;2024-01-10T01:19:17;-4.10;99.90
33269;DHT22;19640;50.944;5.260;2024-01-10T01:21:43;-4.10;99.90
33269;DHT22;19640;50.944;5.260;2024-01-10T01:24:09;-4.20;99.90
33269;DHT22;19640;50.944;5.260;2024-01-10T01:26:35;-4.10;99.90
33269;DHT22;19640;50.944;5.260;2024-01-10T01:29:00;-4.00;99.90
33269;DHT22;19640;50.944;5.260;2024-01-10T01:31:26;-4.10;99.90
33269;DHT22;19640;50.944;5.260;2024-01-10T01:33:52;-4.10;99.90
33269;DHT22;19640;50.944;5.260;2024-01-10T01:36:17;-4.10;99.90
33269;DHT22;19640;50.944;5.260;2024-01-10T01:38:43;-4.10;99.90
33269;DHT22;19640;50.944;5.260;2024-01-10T01:41:09;-4.20;99.90
33269;DHT22;19640;50.944;5.260;2024-01-10T01:43:35;-4.10;99.90
33269;DHT22;19640;50.944;5.260;2024-01-10T01:46:01;-4.10;99.90
33269;DHT22;19640;50.944;5.260;2024-01-10T01:48:28;-4.10;99.90
33269;DHT22;19640;50.944;5.260;2024-01-10T01:50:57;-4.10;99.90
33269;DHT22;19640;50.944;5.260;2024-01-10T01:53:26;-4.20;99.90
33269;DHT22;19640;50.944;5.260;2024-01-10T01:55:54;-4.10;99.90
33269;DHT22;19640;50.944;5.260;2024-01-10T01:58:22;-4.20;99.90
33269;DHT22;19640;50.944;5.260;2024-01-10T02:00:48;-4.20;99.90
33269;DHT22;19640;50.944;5.260;2024-01-10T02:03:14;-4.20;99.90
33269;DHT22;19640;50.944;5.260;2024-01-10T02:05:40;-4.30;99.90
33269;DHT22;19640;50.944;5.260;2024-01-10T02:08:06;-4.20;99.90
33269;DHT22;19640;50.944;5.260;2024-01-10T02:10:31;-4.30;99.90
33269;DHT22;19640;50.944;5.260;2024-01-10T02:12:57;-4.20;99.90
33269;DHT22;19640;50.944;5.260;2024-01-10T02:15:23;-4.10;99.90
33269;DHT22;19640;50.944;5.260;2024-01-10T02:17:49;-4.10;99.90
33269;DHT22;19640;50.944;5.260;2024-01-10T02:20:16;-4.10;99.90
33269;DHT22;19640;50.944;5.260;2024-01-10T02:22:47;-4.10;99.90
33269;DHT22;19640;50.944;5.260;2024-01-10T02:25:13;-4.10;99.90
33269;DHT22;19640;50.944;5.260;2024-01-10T02:27:40;-4.10;99.90
33269;DHT22;19640;50.944;5.260;2024-01-10T02:30:07;-4.20;99.90
33269;DHT22;19640;50.944;5.260;2024-01-10T02:32:33;-4.20;99.90
33269;DHT22;19640;50.944;5.260;2024-01-10T02:34:59;-4.10;99.90
33269;DHT22;19640;50.944;5.260;2024-01-10T02:37:25;-4.20;99.90
33269;DHT22;19640;50.944;5.260;2024-01-10T02:39:51;-4.30;99.90
33269;DHT22;19640;50.944;5.260;2024-01-10T02:42:17;-4.10;99.90
33269;DHT22;19640;50.944;5.260;2024-01-10T02:44:43;-4.20;99.90
33269;DHT22;19640;50.944;5.260;2024-01-10T02:47:09;-4.10;99.90
33269;DHT22;19640;50.944;5.260;2024-01-10T02:49:35;-4.20;99.90
33269;DHT22;19640;50.944;5.260;2024-01-10T02:52:01;-4.30;99.90
33269;DHT22;19640;50.944;5.260;2024-01-10T02:54:27;-4.40;99.90
33269;DHT22;19640;50.944;5.260;2024-01-10T02:56:52;-4.40;99.90
33269;DHT22;19640;50.944;5.260;2024-01-10T02:59:18;-4.50;99.90
33269;DHT22;19640;50.944;5.260;2024-01-10T03:01:44;-4.40;99.90
33269;DHT22;19640;50.944;5.260;2024-01-10T03:04:10;-4.50;99.90
33269;DHT22;19640;50.944;5.260;2024-01-10T03:06:35;-4.60;99.90
33269;DHT22;19640;50.944;5.260;2024-01-10T03:09:01;-4.60;99.90
33269;DHT22;19640;50.944;5.260;2024-01-10T03:11:27;-4.50;99.90
33269;DHT22;19640;50.944;5.260;2024-01-10T03:14:06;-4.50;99.90
33269;DHT22;19640;50.944;5.260;2024-01-10T03:16:33;-4.50;99.90
33269;DHT22;19640;50.944;5.260;2024-01-10T03:18:58;-4.50;99.90
33269;DHT22;19640;50.944;5.260;2024-01-10T03:21:24;-4.60;99.90
33269;DHT22;19640;50.944;5.260;2024-01-10T03:23:55;-4.50;99.90
33269;DHT22;19640;50.944;5.260;2024-01-10T03:26:21;-4.50;99.90
33269;DHT22;19640;50.944;5.260;2024-01-10T03:28:47;-4.50;99.90
33269;DHT22;19640;50.944;5.260;2024-01-10T03:31:14;-4.60;99.90
33269;DHT22;19640;50.944;5.260;2024-01-10T03:33:40;-4.60;99.90
33269;DHT22;19640;50.944;5.260;2024-01-10T03:36:07;-4.70;99.90
33269;DHT22;19640;50.944;5.260;2024-01-10T03:38:32;-4.70;99.90
33269;DHT22;19640;50.944;5.260;2024-01-10T03:40:58;-4.70;99.90
33269;DHT22;19640;50.944;5.260;2024-01-10T03:43:24;-4.70;99.90
33269;DHT22;19640;50.944;5.260;2024-01-10T03:45:49;-4.70;99.90
33269;DHT22;19640;50.944;5.260;2024-01-10T03:48:15;-4.70;99.90
33269;DHT22;19640;50.944;5.260;2024-01-10T03:50:40;-4.60;99.90
33269;DHT22;19640;50.944;5.260;2024-01-10T03:53:06;-4.70;99.90
33269;DHT22;19640;50.944;5.260;2024-01-10T03:55:32;-4.70;99.90
33269;DHT22;19640;50.944;5.260;2024-01-10T03:57:57;-4.70;99.90
33269;DHT22;19640;50.944;5.260;2024-01-10T04:00:23;-4.70;99.90
33269;DHT22;19640;50.944;5.260;2024-01-10T04:02:50;-4.70;99.90
33269;DHT22;19640;50.944;5.260;2024-01-10T04:05:16;-4.80;99.90
33269;DHT22;19640;50.944;5.260;2024-01-10T04:07:42;-4.70;99.90
33269;DHT22;19640;50.944;5.260;2024-01-10T04:10:09;-4.70;99.90
33269;DHT22;19640;50.944;5.260;2024-01-10T04:12:38;-4.70;99.90
33269;DHT22;19640;50.944;5.260;2024-01-10T04:15:05;-4.80;99.90
33269;DHT22;19640;50.944;5.260;2024-01-10T04:17:31;-4.80;99.90
33269;DHT22;19640;50.944;5.260;2024-01-10T04:19:57;-4.80;99.90
33269;DHT22;19640;50.944;5.260;2024-01-10T04:22:26;-4.80;99.90
33269;DHT22;19640;50.944;5.260;2024-01-10T04:24:52;-4.80;99.90
33269;DHT22;19640;50.944;5.260;2024-01-10T04:27:18;-4.80;99.90
33269;DHT22;19640;50.944;5.260;2024-01-10T04:29:44;-4.80;99.90
33269;DHT22;19640;50.944;5.260;2024-01-10T04:32:10;-4.70;99.90
33269;DHT22;19640;50.944;5.260;2024-01-10T04:34:35;-4.70;99.90
33269;DHT22;19640;50.944;5.260;2024-01-10T04:37:01;-4.70;99.90
33269;DHT22;19640;50.944;5.260;2024-01-10T04:39:27;-4.80;99.90
33269;DHT22;19640;50.944;5.260;2024-01-10T04:41:53;-4.70;99.90
33269;DHT22;19640;50.944;5.260;2024-01-10T04:44:19;-4.70;99.90
33269;DHT22;19640;50.944;5.260;2024-01-10T04:46:44;-4.70;99.90
33269;DHT22;19640;50.944;5.260;2024-01-10T04:49:10;-4.70;99.90
33269;DHT22;19640;50.944;5.260;2024-01-10T04:51:36;-4.70;99.90
33269;DHT22;19640;50.944;5.260;2024-01-10T04:54:02;-4.60;99.90
33269;DHT22;19640;50.944;5.260;2024-01-10T04:56:27;-4.60;99.90
33269;DHT22;19640;50.944;5.260;2024-01-10T04:58:53;-4.70;99.90
33269;DHT22;19640;50.944;5.260;2024-01-10T05:01:18;-4.70;99.90
33269;DHT22;19640;50.944;5.260;2024-01-10T05:03:44;-4.60;99.90
33269;DHT22;19640;50.944;5.260;2024-01-10T05:06:10;-4.60;99.90
33269;DHT22;19640;50.944;5.260;2024-01-10T05:08:36;-4.60;99.90
33269;DHT22;19640;50.944;5.260;2024-01-10T05:11:02;-4.60;99.90
33269;DHT22;19640;50.944;5.260;2024-01-10T05:13:28;-4.70;99.90
33269;DHT22;19640;50.944;5.260;2024-01-10T05:15:54;-4.70;99.90
33269;DHT22;19640;50.944;5.260;2024-01-10T05:18:20;-4.70;99.90
33269;DHT22;19640;50.944;5.260;2024-01-10T05:20:46;-4.70;99.90
33269;DHT22;19640;50.944;5.260;2024-01-10T05:23:12;-4.80;99.90
33269;DHT22;19640;50.944;5.260;2024-01-10T05:25:38;-4.80;99.90
33269;DHT22;19640;50.944;5.260;2024-01-10T05:28:04;-4.80;99.90
33269;DHT22;19640;50.944;5.260;2024-01-10T05:30:30;-4.70;99.90
33269;DHT22;19640;50.944;5.260;2024-01-10T05:32:57;-4.80;99.90
33269;DHT22;19640;50.944;5.260;2024-01-10T05:35:24;-4.80;99.90
33269;DHT22;19640;50.944;5.260;2024-01-10T05:37:51;-4.90;99.90
33269;DHT22;19640;50.944;5.260;2024-01-10T05:40:18;-4.90;99.90
33269;DHT22;19640;50.944;5.260;2024-01-10T05:42:44;-4.90;99.90
33269;DHT22;19640;50.944;5.260;2024-01-10T05:45:10;-4.80;99.90
33269;DHT22;19640;50.944;5.260;2024-01-10T05:47:36;-4.90;99.90
33269;DHT22;19640;50.944;5.260;2024-01-10T05:50:02;-4.90;99.90
33269;DHT22;19640;50.944;5.260;2024-01-10T05:52:31;-4.90;99.90
33269;DHT22;19640;50.944;5.260;2024-01-10T05:54:59;-4.80;99.90
33269;DHT22;19640;50.944;5.260;2024-01-10T05:57:27;-4.90;99.90
33269;DHT22;19640;50.944;5.260;2024-01-10T05:59:53;-4.90;99.90
33269;DHT22;19640;50.944;5.260;2024-01-10T06:02:22;-4.90;99.90
33269;DHT22;19640;50.944;5.260;2024-01-10T06:04:48;-4.90;99.90
33269;DHT22;19640;50.944;5.260;2024-01-10T06:07:14;-4.90;99.90
33269;DHT22;19640;50.944;5.260;2024-01-10T06:09:39;-5.00;99.90
33269;DHT22;19640;50.944;5.260;2024-01-10T06:12:06;-5.00;99.90
33269;DHT22;19640;50.944;5.260;2024-01-10T06:14:32;-5.00;99.90
33269;DHT22;19640;50.944;5.260;2024-01-10T06:16:58;-5.10;99.90
33269;DHT22;19640;50.944;5.260;2024-01-10T06:19:25;-5.00;99.90
33269;DHT22;19640;50.944;5.260;2024-01-10T06:21:51;-5.00;99.90
33269;DHT22;19640;50.944;5.260;2024-01-10T06:24:18;-4.90;99.90
33269;DHT22;19640;50.944;5.260;2024-01-10T06:26:43;-4.90;99.90
33269;DHT22;19640;50.944;5.260;2024-01-10T06:29:09;-4.90;99.90
33269;DHT22;19640;50.944;5.260;2024-01-10T06:31:34;-4.90;99.90
33269;DHT22;19640;50.944;5.260;2024-01-10T06:34:00;-4.90;99.90
33269;DHT22;19640;50.944;5.260;2024-01-10T06:36:26;-4.90;99.90
33269;DHT22;19640;50.944;5.260;2024-01-10T06:38:51;-4.90;99.90
33269;DHT22;19640;50.944;5.260;2024-01-10T06:41:17;-5.00;99.90
33269;DHT22;19640;50.944;5.260;2024-01-10T06:43:48;-5.00;99.90
33269;DHT22;19640;50.944;5.260;2024-01-10T06:46:14;-4.90;99.90
33269;DHT22;19640;50.944;5.260;2024-01-10T06:48:40;-5.00;99.90
33269;DHT22;19640;50.944;5.260;2024-01-10T06:51:10;-5.00;99.90
33269;DHT22;19640;50.944;5.260;2024-01-10T06:53:36;-5.00;99.90
33269;DHT22;19640;50.944;5.260;2024-01-10T06:56:02;-5.00;99.90
33269;DHT22;19640;50.944;5.260;2024-01-10T06:58:27;-5.00;99.90
33269;DHT22;19640;50.944;5.260;2024-01-10T07:00:53;-5.10;99.90
33269;DHT22;19640;50.944;5.260;2024-01-10T07:03:19;-5.10;99.90
33269;DHT22;19640;50.944;5.260;2024-01-10T07:05:45;-5.00;99.90
33269;DHT22;19640;50.944;5.260;2024-01-10T07:08:10;-5.00;99.90
33269;DHT22;19640;50.944;5.260;2024-01-10T07:10:36;-5.10;99.90
33269;DHT22;19640;50.944;5.260;2024-01-10T07:13:04;-5.20;99.90
33269;DHT22;19640;50.944;5.260;2024-01-10T07:15:30;-5.20;99.90
33269;DHT22;19640;50.944;5.260;2024-01-10T07:17:56;-5.10;99.90
33269;DHT22;19640;50.944;5.260;2024-01-10T07:20:21;-5.20;99.90
33269;DHT22;19640;50.944;5.260;2024-01-10T07:22:50;-5.20;99.90
33269;DHT22;19640;50.944;5.260;2024-01-10T07:25:17;-5.20;99.90
33269;DHT22;19640;50.944;5.260;2024-01-10T07:27:43;-5.20;99.90
33269;DHT22;19640;50.944;5.260;2024-01-10T07:30:10;-5.30;99.90
33269;DHT22;19640;50.944;5.260;2024-01-10T07:32:44;-5.30;99.90
33269;DHT22;19640;50.944;5.260;2024-01-10T07:35:12;-5.30;99.90
33269;DHT22;19640;50.944;5.260;2024-01-10T07:37:41;-5.30;99.90
33269;DHT22;19640;50.944;5.260;2024-01-10T07:40:08;-5.30;99.90
33269;DHT22;19640;50.944;5.260;2024-01-10T07:42:34;-5.20;99.90
33269;DHT22;19640;50.944;5.260;2024-01-10T07:45:01;-5.20;99.90
33269;DHT22;19640;50.944;5.260;2024-01-10T07:47:33;-5.20;99.90
33269;DHT22;19640;50.944;5.260;2024-01-10T07:50:05;-5.20;99.90
33269;DHT22;19640;50.944;5.260;2024-01-10T07:52:31;-5.10;99.90
33269;DHT22;19640;50.944;5.260;2024-01-10T07:54:57;-5.10;99.90
33269;DHT22;19640;50.944;5.260;2024-01-10T07:57:23;-5.00;99.90
33269;DHT22;19640;50.944;5.260;2024-01-10T07:59:49;-4.80;99.90
33269;DHT22;19640;50.944;5.260;2024-01-10T08:02:15;-5.00;99.90
33269;DHT22;19640;50.944;5.260;2024-01-10T08:04:40;-5.00;99.90
33269;DHT22;19640;50.944;5.260;2024-01-10T08:07:06;-5.10;99.90
33269;DHT22;19640;50.944;5.260;2024-01-10T08:09:32;-5.20;99.90
33269;DHT22;19640;50.944;5.260;2024-01-10T08:11:58;-5.20;99.90
33269;DHT22;19640;50.944;5.260;2024-01-10T08:14:24;-5.20;99.90
33269;DHT22;19640;50.944;5.260;2024-01-10T08:16:49;-5.10;99.90
33269;DHT22;19640;50.944;5.260;2024-01-10T08:19:18;-5.00;99.90
33269;DHT22;19640;50.944;5.260;2024-01-10T08:21:44;-4.90;99.90
33269;DHT22;19640;50.944;5.260;2024-01-10T08:24:09;-4.90;99.90
33269;DHT22;19640;50.944;5.260;2024-01-10T08:26:35;-4.80;99.90
33269;DHT22;19640;50.944;5.260;2024-01-10T08:29:01;-4.80;99.90
33269;DHT22;19640;50.944;5.260;2024-01-10T08:31:27;-4.70;99.90
33269;DHT22;19640;50.944;5.260;2024-01-10T08:33:53;-4.70;99.90
33269;DHT22;19640;50.944;5.260;2024-01-10T08:36:18;-4.70;99.90
33269;DHT22;19640;50.944;5.260;2024-01-10T08:38:44;-4.80;99.90
33269;DHT22;19640;50.944;5.260;2024-01-10T08:41:10;-4.80;99.90
33269;DHT22;19640;50.944;5.260;2024-01-10T08:43:37;-4.70;99.90
33269;DHT22;19640;50.944;5.260;2024-01-10T08:46:03;-4.70;99.90
33269;DHT22;19640;50.944;5.260;2024-01-10T08:48:29;-4.70;99.90
33269;DHT22;19640;50.944;5.260;2024-01-10T08:50:55;-4.60;99.90
33269;DHT22;19640;50.944;5.260;2024-01-10T08:53:22;-4.60;99.90
33269;DHT22;19640;50.944;5.260;2024-01-10T08:55:48;-4.60;99.90
33269;DHT22;19640;50.944;5.260;2024-01-10T08:58:14;-4.60;99.90
33269;DHT22;19640;50.944;5.260;2024-01-10T09:00:39;-4.50;99.90
33269;DHT22;19640;50.944;5.260;2024-01-10T09:03:05;-4.40;99.90
33269;DHT22;19640;50.944;5.260;2024-01-10T09:05:31;-4.40;99.90
33269;DHT22;19640;50.944;5.260;2024-01-10T09:07:57;-4.30;99.90
33269;DHT22;19640;50.944;5.260;2024-01-10T09:10:23;-4.30;99.90
33269;DHT22;19640;50.944;5.260;2024-01-10T09:12:49;-4.20;99.90
33269;DHT22;19640;50.944;5.260;2024-01-10T09:15:15;-4.20;99.90
33269;DHT22;19640;50.944;5.260;2024-01-10T09:17:44;-4.10;99.90
33269;DHT22;19640;50.944;5.260;2024-01-10T09:20:13;-4.10;99.90
33269;DHT22;19640;50.944;5.260;2024-01-10T09:22:39;-4.00;99.90
33269;DHT22;19640;50.944;5.260;2024-01-10T09:25:05;-4.00;99.90
33269;DHT22;19640;50.944;5.260;2024-01-10T09:27:34;-4.00;99.90
33269;DHT22;19640;50.944;5.260;2024-01-10T09:30:01;-3.90;99.90
33269;DHT22;19640;50.944;5.260;2024-01-10T09:32:36;-3.80;99.90
33269;DHT22;19640;50.944;5.260;2024-01-10T09:35:02;-3.70;99.90
33269;DHT22;19640;50.944;5.260;2024-01-10T09:37:28;-3.70;99.90
33269;DHT22;19640;50.944;5.260;2024-01-10T09:39:54;-3.60;99.90
33269;DHT22;19640;50.944;5.260;2024-01-10T09:42:20;-3.60;99.90
33269;DHT22;19640;50.944;5.260;2024-01-10T09:44:50;-3.60;99.90
33269;DHT22;19640;50.944;5.260;2024-01-10T09:47:16;-3.40;99.90
33269;DHT22;19640;50.944;5.260;2024-01-10T09:49:43;-3.30;99.90
33269;DHT22;19640;50.944;5.260;2024-01-10T09:52:24;-3.30;99.90
33269;DHT22;19640;50.944;5.260;2024-01-10T09:54:55;-3.10;99.90
33269;DHT22;19640;50.944;5.260;2024-01-10T09:57:24;-3.10;99.90
33269;DHT22;19640;50.944;5.260;2024-01-10T09:59:51;-3.00;99.90
33269;DHT22;19640;50.944;5.260;2024-01-10T10:02:20;-3.00;99.90
33269;DHT22;19640;50.944;5.260;2024-01-10T10:05:03;-2.90;99.90
33269;DHT22;19640;50.944;5.260;2024-01-10T10:07:29;-2.90;99.90
33269;DHT22;19640;50.944;5.260;2024-01-10T10:09:55;-2.80;99.90
33269;DHT22;19640;50.944;5.260;2024-01-10T10:12:45;-2.70;99.90
33269;DHT22;19640;50.944;5.260;2024-01-10T10:15:12;-2.60;99.90
33269;DHT22;19640;50.944;5.260;2024-01-10T10:17:39;-2.50;99.90
33269;DHT22;19640;50.944;5.260;2024-01-10T10:20:19;-2.50;99.90
33269;DHT22;19640;50.944;5.260;2024-01-10T10:25:28;-2.40;99.90
33269;DHT22;19640;50.944;5.260;2024-01-10T10:27:55;-2.40;99.90
33269;DHT22;19640;50.944;5.260;2024-01-10T10:30:20;-2.30;99.90
33269;DHT22;19640;50.944;5.260;2024-01-10T10:32:47;-2.30;99.90
33269;DHT22;19640;50.944;5.260;2024-01-10T10:35:13;-2.20;99.90
33269;DHT22;19640;50.944;5.260;2024-01-10T10:37:39;-2.10;99.90
33269;DHT22;19640;50.944;5.260;2024-01-10T10:40:05;-2.20;99.90
33269;DHT22;19640;50.944;5.260;2024-01-10T10:42:34;-2.20;99.90
33269;DHT22;19640;50.944;5.260;2024-01-10T10:45:03;-2.20;99.90
33269;DHT22;19640;50.944;5.260;2024-01-10T10:47:36;-2.20;99.90
33269;DHT22;19640;50.944;5.260;2024-01-10T10:50:03;-2.20;99.90
33269;DHT22;19640;50.944;5.260;2024-01-10T10:52:30;-2.10;99.90
33269;DHT22;19640;50.944;5.260;2024-01-10T10:54:58;-2.10;99.90
33269;DHT22;19640;50.944;5.260;2024-01-10T10:57:27;-2.10;99.90
33269;DHT22;19640;50.944;5.260;2024-01-10T10:59:55;-2.10;99.90
33269;DHT22;19640;50.944;5.260;2024-01-10T11:02:22;-2.00;99.90
33269;DHT22;19640;50.944;5.260;2024-01-10T11:04:54;-2.00;99.90
33269;DHT22;19640;50.944;5.260;2024-01-10T11:07:20;-2.00;99.90
33269;DHT22;19640;50.944;5.260;2024-01-10T11:09:47;-1.90;99.90
33269;DHT22;19640;50.944;5.260;2024-01-10T11:12:27;-1.90;99.90
33269;DHT22;19640;50.944;5.260;2024-01-10T11:18:08;-1.70;99.90
33269;DHT22;19640;50.944;5.260;2024-01-10T11:23:59;-1.60;99.90
33269;DHT22;19640;50.944;5.260;2024-01-10T11:26:25;-1.60;99.90
33269;DHT22;19640;50.944;5.260;2024-01-10T11:28:51;-1.50;99.90
33269;DHT22;19640;50.944;5.260;2024-01-10T11:31:30;-1.60;99.90
33269;DHT22;19640;50.944;5.260;2024-01-10T11:33:57;-1.50;99.90
33269;DHT22;19640;50.944;5.260;2024-01-10T11:36:23;-1.40;99.90
33269;DHT22;19640;50.944;5.260;2024-01-10T11:41:36;-1.30;99.90
33269;DHT22;19640;50.944;5.260;2024-01-10T11:49:09;-1.20;99.90
33269;DHT22;19640;50.944;5.260;2024-01-10T11:51:38;-1.10;99.90
33269;DHT22;19640;50.944;5.260;2024-01-10T11:54:04;-1.10;99.90
33269;DHT22;19640;50.944;5.260;2024-01-10T11:56:43;-1.10;99.90
33269;DHT22;19640;50.944;5.260;2024-01-10T11:59:11;-1.20;99.90
33269;DHT22;19640;50.944;5.260;2024-01-10T12:01:37;-1.20;99.90
33269;DHT22;19640;50.944;5.260;2024-01-10T12:04:04;-1.10;99.90
33269;DHT22;19640;50.944;5.260;2024-01-10T12:06:31;-1.10;99.90
33269;DHT22;19640;50.944;5.260;2024-01-10T12:08:57;-1.00;99.90
33269;DHT22;19640;50.944;5.260;2024-01-10T12:11:23;-1.00;99.90
33269;DHT22;19640;50.944;5.260;2024-01-10T12:13:49;-1.00;99.90
33269;DHT22;19640;50.944;5.260;2024-01-10T12:16:15;-0.90;99.90
33269;DHT22;19640;50.944;5.260;2024-01-10T12:18:42;-0.90;99.90
33269;DHT22;19640;50.944;5.260;2024-01-10T12:21:08;-0.90;99.90
33269;DHT22;19640;50.944;5.260;2024-01-10T12:23:38;-0.80;99.90
33269;DHT22;19640;50.944;5.260;2024-01-10T12:26:09;-0.80;99.90
33269;DHT22;19640;50.944;5.260;2024-01-10T12:28:37;-0.70;99.90
33269;DHT22;19640;50.944;5.260;2024-01-10T12:31:06;-0.50;99.90
33269;DHT22;19640;50.944;5.260;2024-01-10T12:33:37;-0.70;99.90
33269;DHT22;19640;50.944;5.260;2024-01-10T12:36:10;-0.60;99.90
33269;DHT22;19640;50.944;5.260;2024-01-10T12:38:38;-0.60;99.90
33269;DHT22;19640;50.944;5.260;2024-01-10T12:41:04;-0.50;99.90
33269;DHT22;19640;50.944;5.260;2024-01-10T12:43:31;-0.50;99.90
33269;DHT22;19640;50.944;5.260;2024-01-10T12:46:23;-0.50;99.90
33269;DHT22;19640;50.944;5.260;2024-01-10T12:49:06;-0.30;99.90
33269;DHT22;19640;50.944;5.260;2024-01-10T12:51:33;-0.20;99.90
33269;DHT22;19640;50.944;5.260;2024-01-10T12:54:01;-0.20;99.90
33269;DHT22;19640;50.944;5.260;2024-01-10T12:56:29;-0.30;99.90
33269;DHT22;19640;50.944;5.260;2024-01-10T12:58:56;-0.40;99.90
33269;DHT22;19640;50.944;5.260;2024-01-10T13:01:23;-0.30;99.90
33269;DHT22;19640;50.944;5.260;2024-01-10T13:03:49;-0.20;99.90
33269;DHT22;19640;50.944;5.260;2024-01-10T13:06:15;-0.20;99.90
33269;DHT22;19640;50.944;5.260;2024-01-10T13:08:45;-0.40;99.90
33269;DHT22;19640;50.944;5.260;2024-01-10T13:11:11;-0.30;99.90
33269;DHT22;19640;50.944;5.260;2024-01-10T13:13:37;-0.20;99.90
33269;DHT22;19640;50.944;5.260;2024-01-10T13:16:03;-0.10;99.90
33269;DHT22;19640;50.944;5.260;2024-01-10T13:18:29;-0.30;99.90
33269;DHT22;19640;50.944;5.260;2024-01-10T13:20:55;-0.20;99.90
33269;DHT22;19640;50.944;5.260;2024-01-10T13:23:21;-0.10;99.90
33269;DHT22;19640;50.944;5.260;2024-01-10T13:25:50;0.00;99.90
33269;DHT22;19640;50.944;5.260;2024-01-10T13:28:16;0.00;99.90
33269;DHT22;19640;50.944;5.260;2024-01-10T13:30:42;0.00;99.70
33269;DHT22;19640;50.944;5.260;2024-01-10T13:33:11;0.00;99.90
33269;DHT22;19640;50.944;5.260;2024-01-10T13:35:37;-0.10;99.90
33269;DHT22;19640;50.944;5.260;2024-01-10T13:38:03;-0.10;99.90
33269;DHT22;19640;50.944;5.260;2024-01-10T13:40:29;0.00;99.90
33269;DHT22;19640;50.944;5.260;2024-01-10T13:42:54;0.00;99.90
33269;DHT22;19640;50.944;5.260;2024-01-10T13:45:20;0.10;99.90
33269;DHT22;19640;50.944;5.260;2024-01-10T13:47:47;0.00;99.90
33269;DHT22;19640;50.944;5.260;2024-01-10T13:50:14;0.00;99.90
33269;DHT22;19640;50.944;5.260;2024-01-10T13:52:40;0.10;99.90
33269;DHT22;19640;50.944;5.260;2024-01-10T13:55:07;0.10;99.90
33269;DHT22;19640;50.944;5.260;2024-01-10T13:57:32;0.00;99.90
33269;DHT22;19640;50.944;5.260;2024-01-10T14:00:02;0.00;99.90
33269;DHT22;19640;50.944;5.260;2024-01-10T14:02:29;0.00;99.90
33269;DHT22;19640;50.944;5.260;2024-01-10T14:04:54;-0.10;99.90
33269;DHT22;19640;50.944;5.260;2024-01-10T14:07:23;0.00;99.90
33269;DHT22;19640;50.944;5.260;2024-01-10T14:09:49;0.00;99.90
33269;DHT22;19640;50.944;5.260;2024-01-10T14:12:15;0.00;99.90
33269;DHT22;19640;50.944;5.260;2024-01-10T14:14:41;0.00;99.90
33269;DHT22;19640;50.944;5.260;2024-01-10T14:17:06;0.10;99.90
33269;DHT22;19640;50.944;5.260;2024-01-10T14:19:32;0.10;99.90
33269;DHT22;19640;50.944;5.260;2024-01-10T14:21:58;0.10;99.90
33269;DHT22;19640;50.944;5.260;2024-01-10T14:24:24;0.10;99.90
33269;DHT22;19640;50.944;5.260;2024-01-10T14:26:50;0.10;99.90
33269;DHT22;19640;50.944;5.260;2024-01-10T14:29:16;0.10;99.90
33269;DHT22;19640;50.944;5.260;2024-01-10T14:31:42;0.20;99.90
33269;DHT22;19640;50.944;5.260;2024-01-10T14:34:07;0.20;99.90
33269;DHT22;19640;50.944;5.260;2024-01-10T14:36:33;0.20;99.90
33269;DHT22;19640;50.944;5.260;2024-01-10T14:38:59;0.10;99.90
33269;DHT22;19640;50.944;5.260;2024-01-10T14:41:25;0.10;99.90
33269;DHT22;19640;50.944;5.260;2024-01-10T14:43:51;0.10;99.90
33269;DHT22;19640;50.944;5.260;2024-01-10T14:46:17;0.30;99.90
33269;DHT22;19640;50.944;5.260;2024-01-10T14:48:43;0.40;99.90
33269;DHT22;19640;50.944;5.260;2024-01-10T14:51:08;0.30;99.90
33269;DHT22;19640;50.944;5.260;2024-01-10T14:53:34;0.20;99.90
33269;DHT22;19640;50.944;5.260;2024-01-10T14:56:03;0.10;99.90
33269;DHT22;19640;50.944;5.260;2024-01-10T14:58:29;0.20;99.90
33269;DHT22;19640;50.944;5.260;2024-01-10T15:00:55;0.20;99.90
33269;DHT22;19640;50.944;5.260;2024-01-10T15:03:21;0.20;99.90
33269;DHT22;19640;50.944;5.260;2024-01-10T15:05:47;0.10;99.90
33269;DHT22;19640;50.944;5.260;2024-01-10T15:08:13;0.00;99.90
33269;DHT22;19640;50.944;5.260;2024-01-10T15:10:39;0.00;99.90
33269;DHT22;19640;50.944;5.260;2024-01-10T15:13:11;0.00;99.90
33269;DHT22;19640;50.944;5.260;2024-01-10T15:15:38;0.10;99.90
33269;DHT22;19640;50.944;5.260;2024-01-10T15:18:05;0.00;99.90
33269;DHT22;19640;50.944;5.260;2024-01-10T15:20:31;0.00;99.90
33269;DHT22;19640;50.944;5.260;2024-01-10T15:22:56;-0.20;99.90
33269;DHT22;19640;50.944;5.260;2024-01-10T15:25:24;-0.20;99.90
33269;DHT22;19640;50.944;5.260;2024-01-10T15:27:51;-0.30;99.90
33269;DHT22;19640;50.944;5.260;2024-01-10T15:30:17;-0.40;99.90
33269;DHT22;19640;50.944;5.260;2024-01-10T15:32:44;-0.40;99.90
33269;DHT22;19640;50.944;5.260;2024-01-10T15:35:09;-0.50;99.90
33269;DHT22;19640;50.944;5.260;2024-01-10T15:37:35;-0.50;99.90
33269;DHT22;19640;50.944;5.260;2024-01-10T15:40:01;-0.60;99.90
33269;DHT22;19640;50.944;5.260;2024-01-10T15:42:27;-0.60;99.90
33269;DHT22;19640;50.944;5.260;2024-01-10T15:44:53;-0.60;99.90
33269;DHT22;19640;50.944;5.260;2024-01-10T15:47:18;-0.60;99.90